M I D A S
Marine Information and Data Acquisition System
Tripno 1711 of the Zeeleeuw from 2009-06-17 08:24:53 to 2009-06-17 18:02:55
Back to CruiseResearch ActivitiesStationsMapUnderway DataData graphs

EquipmentUnitsComment
TimeDGPSUTC
LatitudeDGPSDM.mWGS84
LongitudeDGPSDM.mWGS84
HeadingGyrodeg 
SOGDGPSknotsSpeed over ground
COGDGPSdegCourse over ground
DepthEcho soundermeters200 kHz
Missing or incorrect values are displayed as -999
Navigation data collected by the RV Zeeleeuw from 2009-06-17 08:10:31 to 2009-06-17 18:11:20
                                                                                    Next 1000 lines
Time Latitude Longitude Heading SOG COG Depth
2009-06-17 08:10:41 51°13.662 2°55.955 112.4 1.2 290 7.7
2009-06-17 08:10:46 51°13.663 2°55.951 112.3 1.7 292 7.8
2009-06-17 08:10:51 51°13.664 2°55.947 112.6 2.2 293 7.8
2009-06-17 08:10:57 51°13.666 2°55.941 113.1 2.5 294 -999
2009-06-17 08:11:02 51°13.667 2°55.935 113.5 2.7 295 -999
2009-06-17 08:11:08 51°13.669 2°55.929 114 2.8 295 -999
2009-06-17 08:11:13 51°13.671 2°55.923 114 3 295 -999
2009-06-17 08:11:19 51°13.673 2°55.916 114 3.1 295 -999
2009-06-17 08:11:25 51°13.676 2°55.908 113.5 3.3 295 -999
2009-06-17 08:11:29 51°13.677 2°55.902 112.8 3.4 295 -999
2009-06-17 08:11:35 51°13.68 2°55.894 112 3.5 293 -999
2009-06-17 08:11:40 51°13.682 2°55.887 111.1 3.6 294 -999
2009-06-17 08:11:44 51°13.683 2°55.881 110.4 3.7 292 -999
2009-06-17 08:11:49 51°13.685 2°55.873 109.5 3.7 291 -999
2009-06-17 08:11:55 51°13.687 2°55.863 108.2 3.7 289 -999
2009-06-17 08:12:00 51°13.688 2°55.856 106.4 3.7 288 -999
2009-06-17 08:12:05 51°13.69 2°55.848 104.2 3.6 286 -999
2009-06-17 08:12:09 51°13.69 2°55.842 102 3.5 284 -999
2009-06-17 08:12:15 51°13.691 2°55.833 100 3.5 282 -999
2009-06-17 08:12:20 51°13.692 2°55.825 97.8 3.4 280 -999
2009-06-17 08:12:25 51°13.693 2°55.818 95.9 3.4 279 -999
2009-06-17 08:12:30 51°13.693 2°55.811 93.9 3.3 277 -999
2009-06-17 08:12:35 51°13.694 2°55.804 92 3.2 275 -999
2009-06-17 08:12:40 51°13.694 2°55.797 89.7 3 274 -999
2009-06-17 08:12:45 51°13.694 2°55.791 88.5 2.9 272 -999
2009-06-17 08:12:49 51°13.695 2°55.786 87 2.7 273 -999
2009-06-17 08:12:55 51°13.695 2°55.779 85.8 2.6 271 -999
2009-06-17 08:13:00 51°13.695 2°55.773 84.5 2.5 271 -999
2009-06-17 08:13:04 51°13.695 2°55.769 83.1 2.3 269 13.9
2009-06-17 08:13:09 51°13.695 2°55.765 82.2 1.9 270 14.2
2009-06-17 08:13:14 51°13.695 2°55.762 80.8 1.4 271 14.3
2009-06-17 08:13:19 51°13.695 2°55.76 79.2 1 283 14.4
2009-06-17 08:13:24 51°13.695 2°55.758 74.9 0.4 307 14.4
2009-06-17 08:13:29 51°13.696 2°55.758 70.8 0.5 345 14.5
2009-06-17 08:13:33 51°13.697 2°55.758 65.5 0.6 15 14.6
2009-06-17 08:13:38 51°13.698 2°55.759 60.2 0.8 18 14.6
2009-06-17 08:13:43 51°13.699 2°55.76 56 0.9 25 14.5
2009-06-17 08:13:48 51°13.7 2°55.761 49.9 1 21 14.4
2009-06-17 08:13:53 51°13.702 2°55.762 45.1 1.1 24 14.5
2009-06-17 08:13:57 51°13.703 2°55.762 40.6 1 20 14.7
2009-06-17 08:14:02 51°13.704 2°55.763 37.7 0.9 18 14.8
2009-06-17 08:14:07 51°13.705 2°55.763 34.9 0.7 10 14.9
2009-06-17 08:14:12 51°13.706 2°55.763 31.8 0.4 358 14.9
2009-06-17 08:14:17 51°13.706 2°55.763 29.1 0.3 326 14.9
2009-06-17 08:14:22 51°13.706 2°55.762 26.8 0.2 266 14.9
2009-06-17 08:14:27 51°13.706 2°55.761 24.8 0.4 240 14.9
2009-06-17 08:14:32 51°13.706 2°55.76 22.9 0.6 225 14.9
2009-06-17 08:14:37 51°13.705 2°55.759 20.7 0.7 219 14.8
2009-06-17 08:14:41 51°13.704 2°55.758 19 0.7 217 14.8
2009-06-17 08:14:46 51°13.704 2°55.758 17.9 0.6 226 14.6
2009-06-17 08:14:51 51°13.703 2°55.757 16.6 0.5 237 14.5
2009-06-17 08:14:56 51°13.704 2°55.756 15 0.5 341 14.5
2009-06-17 08:15:01 51°13.705 2°55.755 11.3 1.1 345 14.6
2009-06-17 08:15:06 51°13.708 2°55.755 5.2 1.8 350 14.9
2009-06-17 08:15:11 51°13.711 2°55.753 359.4 2.3 343 14.6
2009-06-17 08:15:16 51°13.714 2°55.751 349.5 2.7 340 14.2
2009-06-17 08:15:21 51°13.718 2°55.748 341.3 3 334 14.2
2009-06-17 08:15:25 51°13.721 2°55.746 334.4 3.3 331 13.9
2009-06-17 08:15:31 51°13.726 2°55.74 329.7 3.8 327 13.6
2009-06-17 08:15:36 51°13.731 2°55.735 327.1 4.4 326 13.5
2009-06-17 08:15:41 51°13.737 2°55.729 326.1 4.8 325 13.4
2009-06-17 08:15:45 51°13.742 2°55.724 326.4 5.4 326 13
2009-06-17 08:15:51 51°13.75 2°55.715 327 5.8 326 12.1
2009-06-17 08:15:56 51°13.757 2°55.708 328.1 6.2 327 11.7
2009-06-17 08:16:01 51°13.764 2°55.7 328.4 6.5 326 11.4
2009-06-17 08:16:05 51°13.771 2°55.693 329.1 6.8 328 11.5
2009-06-17 08:16:11 51°13.781 2°55.683 329.6 7 328 11.7
2009-06-17 08:16:16 51°13.789 2°55.675 330.2 7.2 329 11.3
2009-06-17 08:16:21 51°13.798 2°55.667 330.8 7.4 329 11.8
2009-06-17 08:16:26 51°13.807 2°55.659 332 7.5 331 12
2009-06-17 08:16:31 51°13.817 2°55.651 333.6 7.7 332 11.9
2009-06-17 08:16:36 51°13.826 2°55.642 334.2 7.8 332 11.9
2009-06-17 08:16:41 51°13.836 2°55.635 334.9 7.8 333 11.6
2009-06-17 08:16:46 51°13.846 2°55.626 335.1 8 332 12
2009-06-17 08:16:51 51°13.856 2°55.618 334.9 8.1 333 12.2
2009-06-17 08:16:56 51°13.866 2°55.61 335.3 8.2 334 12.2
2009-06-17 08:17:01 51°13.876 2°55.602 335.5 8.2 333 12.2
2009-06-17 08:17:06 51°13.886 2°55.594 335.9 8.2 334 12.4
2009-06-17 08:17:11 51°13.897 2°55.586 335.9 8.3 333 12.4
2009-06-17 08:17:16 51°13.908 2°55.578 336.1 8.3 335 12.3
2009-06-17 08:17:21 51°13.918 2°55.571 336.8 8.3 335 12.3
2009-06-17 08:17:26 51°13.929 2°55.563 336.4 8.4 334 12.3
2009-06-17 08:17:31 51°13.939 2°55.554 336.1 8.4 335 12.3
2009-06-17 08:17:36 51°13.949 2°55.546 336.4 8.4 335 12.3
2009-06-17 08:17:41 51°13.96 2°55.538 336.7 8.4 335 12.3
2009-06-17 08:17:46 51°13.97 2°55.53 336.4 8.4 334 12.3
2009-06-17 08:17:51 51°13.98 2°55.522 336.1 8.5 334 12.2
2009-06-17 08:17:56 51°13.991 2°55.514 336 8.5 334 12.1
2009-06-17 08:18:01 51°14.001 2°55.505 335.8 8.5 334 12.1
2009-06-17 08:18:05 51°14.01 2°55.498 335.5 8.5 333 11.7
2009-06-17 08:18:11 51°14.022 2°55.488 335.5 8.5 334 11.7
2009-06-17 08:18:16 51°14.033 2°55.48 335.6 8.6 333 12.1
2009-06-17 08:18:21 51°14.044 2°55.472 335.7 8.5 335 12
2009-06-17 08:18:25 51°14.053 2°55.465 336.2 8.6 334 12
2009-06-17 08:18:31 51°14.065 2°55.455 336.3 8.6 334 12.2
2009-06-17 08:18:36 51°14.076 2°55.447 336 8.6 333 11.7
2009-06-17 08:18:41 51°14.087 2°55.438 335.4 8.6 333 11.6
2009-06-17 08:18:46 51°14.097 2°55.429 335.4 8.6 333 11.8
2009-06-17 08:18:51 51°14.108 2°55.421 335.4 8.6 332 12
2009-06-17 08:18:56 51°14.118 2°55.411 334.7 8.7 332 12
2009-06-17 08:19:01 51°14.129 2°55.403 334.7 8.7 333 12.2
2009-06-17 08:19:06 51°14.14 2°55.393 334.7 8.6 331 12
2009-06-17 08:19:11 51°14.15 2°55.384 333.8 8.6 330 12
2009-06-17 08:19:16 51°14.16 2°55.374 332.4 8.6 329 12
2009-06-17 08:19:21 51°14.171 2°55.364 331.1 8.7 327 11.9
2009-06-17 08:19:26 51°14.181 2°55.353 329.7 8.6 326 11.9
2009-06-17 08:19:31 51°14.19 2°55.342 328.9 8.6 325 11.9
2009-06-17 08:19:36 51°14.2 2°55.331 327.7 8.6 324 11.9
2009-06-17 08:19:41 51°14.21 2°55.32 326.2 8.7 323 11.9
2009-06-17 08:19:46 51°14.219 2°55.308 324.8 8.8 321 11.9
2009-06-17 08:19:51 51°14.229 2°55.295 323 8.8 319 12
2009-06-17 08:19:56 51°14.238 2°55.281 321.1 8.9 317 11.9
2009-06-17 08:20:01 51°14.247 2°55.268 318.8 8.9 316 12
2009-06-17 08:20:06 51°14.255 2°55.254 318 8.9 315 12.1
2009-06-17 08:20:11 51°14.264 2°55.24 317.2 9 314 12
2009-06-17 08:20:16 51°14.273 2°55.225 315.8 9 313 12
2009-06-17 08:20:21 51°14.281 2°55.21 314.5 9.1 312 11.9
2009-06-17 08:20:26 51°14.29 2°55.195 314 9.2 312 12.1
2009-06-17 08:20:31 51°14.298 2°55.18 313.7 9.2 311 12.1
2009-06-17 08:20:36 51°14.307 2°55.164 313.2 9.3 311 12
2009-06-17 08:20:41 51°14.315 2°55.149 312.9 9.4 311 11.9
2009-06-17 08:20:45 51°14.322 2°55.136 313.2 9.4 311 11.8
2009-06-17 08:20:51 51°14.333 2°55.117 312.9 9.6 309 11.9
2009-06-17 08:20:56 51°14.341 2°55.1 311.4 9.6 308 12
2009-06-17 08:21:01 51°14.349 2°55.083 309.9 9.7 308 12
2009-06-17 08:21:05 51°14.355 2°55.07 309.5 9.8 308 12.1
2009-06-17 08:21:11 51°14.365 2°55.049 309.3 9.8 307 11.8
2009-06-17 08:21:16 51°14.374 2°55.031 308.6 9.9 307 11.6
2009-06-17 08:21:21 51°14.382 2°55.013 307.9 10 306 11.6
2009-06-17 08:21:26 51°14.39 2°54.996 307.7 10 306 11.6
2009-06-17 08:21:31 51°14.398 2°54.977 307.1 10.1 304 11.7
2009-06-17 08:21:36 51°14.406 2°54.959 304.9 10.1 302 11.9
2009-06-17 08:21:41 51°14.413 2°54.939 302.6 10.1 302 12
2009-06-17 08:21:46 51°14.421 2°54.921 302.5 10.2 303 12.1
2009-06-17 08:21:51 51°14.428 2°54.902 303.5 10.2 304 12
2009-06-17 08:21:56 51°14.436 2°54.883 303.4 10.2 304 11.8
2009-06-17 08:22:01 51°14.444 2°54.865 302.9 10.2 305 11.9
2009-06-17 08:22:06 51°14.453 2°54.846 302.9 10.2 304 12
2009-06-17 08:22:11 51°14.461 2°54.827 302.3 10.3 304 12.1
2009-06-17 08:22:16 51°14.469 2°54.808 301.8 10.2 305 12
2009-06-17 08:22:21 51°14.477 2°54.789 301.7 10.3 305 11.9
2009-06-17 08:22:26 51°14.485 2°54.771 301.9 10.4 305 11.9
2009-06-17 08:22:31 51°14.493 2°54.752 302 10.5 306 12.1
2009-06-17 08:22:36 51°14.502 2°54.733 302.1 10.6 305 12.2
2009-06-17 08:22:41 51°14.511 2°54.714 302 10.6 305 12
2009-06-17 08:22:46 51°14.519 2°54.694 301.8 10.8 304 12
2009-06-17 08:22:51 51°14.527 2°54.674 300.6 10.8 302 11.9
2009-06-17 08:22:56 51°14.535 2°54.654 299.8 10.9 303 12
2009-06-17 08:23:01 51°14.543 2°54.633 299.8 11 301 12
2009-06-17 08:23:06 51°14.551 2°54.612 299.3 11.1 302 11.7
2009-06-17 08:23:11 51°14.559 2°54.591 299.5 11.2 301 11.6
2009-06-17 08:23:16 51°14.568 2°54.57 299.8 11.2 302 11.8
2009-06-17 08:23:21 51°14.576 2°54.549 300.1 11.2 301 11.8
2009-06-17 08:23:26 51°14.584 2°54.527 300.2 11.4 302 11.9
2009-06-17 08:23:31 51°14.592 2°54.505 300.2 11.4 301 11.8
2009-06-17 08:23:36 51°14.601 2°54.484 300.2 11.5 303 11.8
2009-06-17 08:23:41 51°14.609 2°54.463 301 11.5 303 11.6
2009-06-17 08:23:46 51°14.618 2°54.441 301.1 11.5 302 11.8
2009-06-17 08:23:51 51°14.626 2°54.42 301 11.5 302 11.9
2009-06-17 08:23:56 51°14.635 2°54.398 300.6 11.5 301 11.9
2009-06-17 08:24:01 51°14.643 2°54.377 299.8 11.4 301 11.5
2009-06-17 08:24:06 51°14.651 2°54.355 299.1 11.4 300 11.8
2009-06-17 08:24:11 51°14.658 2°54.333 297.5 11.4 298 11.9
2009-06-17 08:24:16 51°14.666 2°54.311 296.8 11.4 298 11.8
2009-06-17 08:24:21 51°14.673 2°54.288 296.8 11.4 298 11.9
2009-06-17 08:24:26 51°14.68 2°54.266 295.3 11.4 294 12.1
2009-06-17 08:24:31 51°14.687 2°54.243 294.1 11.4 296 12.3
2009-06-17 08:24:36 51°14.693 2°54.22 293.5 11.4 293 11.8
2009-06-17 08:24:41 51°14.7 2°54.197 292.3 11.4 294 11.7
2009-06-17 08:24:46 51°14.706 2°54.174 291.8 11.4 292 12
2009-06-17 08:24:51 51°14.712 2°54.151 291.6 11.4 293 11.9
2009-06-17 08:24:56 51°14.718 2°54.127 291.1 11.4 291 11.9
2009-06-17 08:25:01 51°14.724 2°54.104 290.3 11.4 293 11.8
2009-06-17 08:25:06 51°14.73 2°54.08 290.4 11.4 291 11.8
2009-06-17 08:25:11 51°14.736 2°54.057 290.1 11.4 292 11.8
2009-06-17 08:25:16 51°14.742 2°54.034 290 11.4 291 11.7
2009-06-17 08:25:21 51°14.747 2°54.011 289.8 11.4 292 11.6
2009-06-17 08:25:26 51°14.753 2°53.987 290.2 11.4 292 11.7
2009-06-17 08:25:31 51°14.76 2°53.964 290.5 11.4 293 11.6
2009-06-17 08:25:36 51°14.766 2°53.941 290.5 11.4 293 11.3
2009-06-17 08:25:41 51°14.772 2°53.917 290.4 11.4 292 11.3
2009-06-17 08:25:46 51°14.777 2°53.894 290.1 11.4 291 11.4
2009-06-17 08:25:51 51°14.783 2°53.871 289.8 11.3 291 11.3
2009-06-17 08:25:56 51°14.789 2°53.848 289.9 11.3 292 11.2
2009-06-17 08:26:01 51°14.795 2°53.824 290.2 11.3 292 11.2
2009-06-17 08:26:06 51°14.8 2°53.801 289.6 11.3 291 11.3
2009-06-17 08:26:11 51°14.806 2°53.777 289.6 11.4 291 11.3
2009-06-17 08:26:16 51°14.812 2°53.754 290 11.4 291 11.3
2009-06-17 08:26:21 51°14.817 2°53.73 289.8 11.4 290 11.4
2009-06-17 08:26:26 51°14.823 2°53.707 289.4 11.4 290 11.4
2009-06-17 08:26:31 51°14.828 2°53.684 289.9 11.4 291 11.3
2009-06-17 08:26:36 51°14.834 2°53.66 289.7 11.3 290 11.4
2009-06-17 08:26:41 51°14.839 2°53.636 289.1 11.4 289 11.5
2009-06-17 08:26:46 51°14.844 2°53.613 288.8 11.4 290 11.4
2009-06-17 08:26:51 51°14.849 2°53.589 288.8 11.4 289 11.5
2009-06-17 08:26:56 51°14.855 2°53.565 289.3 11.4 290 11.5
2009-06-17 08:27:01 51°14.861 2°53.541 289.8 11.5 291 11.2
2009-06-17 08:27:05 51°14.865 2°53.522 289.7 11.5 291 11.5
2009-06-17 08:27:11 51°14.872 2°53.494 290.2 11.5 291 11.5
2009-06-17 08:27:16 51°14.878 2°53.47 290.4 11.5 291 11.4
2009-06-17 08:27:21 51°14.884 2°53.447 290.3 11.5 291 11.3
2009-06-17 08:27:26 51°14.89 2°53.423 290.4 11.5 292 11.2
2009-06-17 08:27:31 51°14.895 2°53.399 290.6 11.4 292 11.1
2009-06-17 08:27:36 51°14.901 2°53.375 290.3 11.5 292 11.3
2009-06-17 08:27:41 51°14.907 2°53.352 290.5 11.5 292 11.3
2009-06-17 08:27:46 51°14.913 2°53.328 290.5 11.5 292 11.2
2009-06-17 08:27:51 51°14.919 2°53.304 290.4 11.5 291 11.6
2009-06-17 08:27:56 51°14.925 2°53.281 290.6 11.6 291 11.7
2009-06-17 08:28:01 51°14.931 2°53.257 290.5 11.5 292 11.6
2009-06-17 08:28:06 51°14.937 2°53.233 290.4 11.6 292 11.5
2009-06-17 08:28:11 51°14.943 2°53.21 290.7 11.6 292 11.6
2009-06-17 08:28:16 51°14.949 2°53.186 290.7 11.5 291 11.5
2009-06-17 08:28:21 51°14.955 2°53.162 290.4 11.5 293 11.3
2009-06-17 08:28:26 51°14.96 2°53.138 290.3 11.5 292 11.6
2009-06-17 08:28:31 51°14.966 2°53.115 290.4 11.5 291 11.9
2009-06-17 08:28:36 51°14.972 2°53.091 290.5 11.5 291 11.9
2009-06-17 08:28:41 51°14.978 2°53.067 290.4 11.4 292 12
2009-06-17 08:28:46 51°14.984 2°53.044 290.4 11.5 290 11.9
2009-06-17 08:28:51 51°14.99 2°53.02 290.6 11.4 293 11.7
2009-06-17 08:28:56 51°14.995 2°52.997 289.7 11.4 289 11.7
2009-06-17 08:29:01 51°15 2°52.973 288.2 11.4 289 11.8
2009-06-17 08:29:06 51°15.005 2°52.949 287.3 11.4 288 11.7
2009-06-17 08:29:11 51°15.01 2°52.925 286.9 11.4 289 11.9
2009-06-17 08:29:16 51°15.015 2°52.901 286.2 11.4 287 11.8
2009-06-17 08:29:21 51°15.019 2°52.877 285.4 11.4 287 11.9
2009-06-17 08:29:26 51°15.024 2°52.853 285.3 11.4 286 11.9
2009-06-17 08:29:31 51°15.029 2°52.828 285 11.4 287 11.9
2009-06-17 08:29:36 51°15.033 2°52.804 284.6 11.4 285 11.8
2009-06-17 08:29:41 51°15.037 2°52.78 284.3 11.4 286 11.9
2009-06-17 08:29:46 51°15.041 2°52.756 284.4 11.3 285 12
2009-06-17 08:29:51 51°15.045 2°52.732 284 11.4 286 12
2009-06-17 08:29:56 51°15.049 2°52.708 284.3 11.4 286 12
2009-06-17 08:30:01 51°15.054 2°52.683 284.5 11.3 285 12.2
2009-06-17 08:30:05 51°15.057 2°52.664 284.1 11.4 284 12.2
2009-06-17 08:30:11 51°15.062 2°52.635 283.6 11.3 284 12
2009-06-17 08:30:16 51°15.065 2°52.611 283.3 11.3 283 12
2009-06-17 08:30:21 51°15.067 2°52.586 280.2 11.2 277 12.2
2009-06-17 08:30:26 51°15.07 2°52.562 277.9 11.2 279 12
2009-06-17 08:30:31 51°15.071 2°52.537 276.3 11.2 275 12.1
2009-06-17 08:30:36 51°15.072 2°52.513 274 11.1 274 12.2
2009-06-17 08:30:41 51°15.073 2°52.488 273.5 11.1 274 12.1
2009-06-17 08:30:46 51°15.074 2°52.464 271.8 11.2 272 11.9
2009-06-17 08:30:51 51°15.073 2°52.439 269.9 11.1 270 12
2009-06-17 08:30:56 51°15.073 2°52.414 268.6 11.1 268 12.1
2009-06-17 08:31:01 51°15.073 2°52.389 267 11.2 268 11.9
2009-06-17 08:31:06 51°15.072 2°52.365 266.1 11.1 268 11.8
2009-06-17 08:31:11 51°15.07 2°52.34 265.4 11.1 264 12.3
2009-06-17 08:31:16 51°15.069 2°52.316 264.7 11.1 266 12
2009-06-17 08:31:21 51°15.068 2°52.291 264.4 11.1 264 11.9
2009-06-17 08:31:26 51°15.066 2°52.267 264 11.1 264 12.1
2009-06-17 08:31:31 51°15.065 2°52.242 263 11.1 264 12.2
2009-06-17 08:31:36 51°15.063 2°52.218 262.9 11.1 263 12
2009-06-17 08:31:41 51°15.061 2°52.194 262.2 11.1 263 12.2
2009-06-17 08:31:46 51°15.06 2°52.169 261.9 11.2 262 12.1
2009-06-17 08:31:51 51°15.058 2°52.145 262.2 11.2 266 12.1
2009-06-17 08:31:56 51°15.056 2°52.121 263.1 11.1 261 12.3
2009-06-17 08:32:01 51°15.055 2°52.096 262.5 11.1 265 12
2009-06-17 08:32:06 51°15.052 2°52.072 262.2 11.1 263 12.2
2009-06-17 08:32:11 51°15.051 2°52.047 262.8 11.1 264 12.1
2009-06-17 08:32:16 51°15.05 2°52.023 263.3 11.1 266 12
2009-06-17 08:32:21 51°15.048 2°51.999 263 11.1 262 12.4
2009-06-17 08:32:26 51°15.046 2°51.974 262.6 11.1 265 12.2
2009-06-17 08:32:31 51°15.044 2°51.95 261.7 11.1 263 12.1
2009-06-17 08:32:36 51°15.042 2°51.926 262.3 11 263 12.4
2009-06-17 08:32:41 51°15.04 2°51.902 262.1 11.1 263 12.2
2009-06-17 08:32:46 51°15.039 2°51.878 262 11.1 264 12.3
2009-06-17 08:32:51 51°15.037 2°51.853 262 11.1 263 12.4
2009-06-17 08:32:56 51°15.035 2°51.829 262.2 11.1 265 12.2
2009-06-17 08:33:01 51°15.034 2°51.804 263 11.1 264 12.5
2009-06-17 08:33:06 51°15.033 2°51.78 263.5 11.1 266 12.4
2009-06-17 08:33:11 51°15.031 2°51.755 263.9 11.1 264 12.5
2009-06-17 08:33:16 51°15.03 2°51.731 263.9 11.1 266 12.4
2009-06-17 08:33:21 51°15.028 2°51.706 263.3 11.1 263 12.6
2009-06-17 08:33:26 51°15.027 2°51.682 263.8 11.1 266 12.6
2009-06-17 08:33:31 51°15.026 2°51.657 264.7 11.1 267 12.5
2009-06-17 08:33:36 51°15.025 2°51.633 265.4 11.1 267 12.7
2009-06-17 08:33:41 51°15.024 2°51.608 265.8 11.1 268 12.6
2009-06-17 08:33:46 51°15.024 2°51.584 266.8 11.1 267 12.9
2009-06-17 08:33:51 51°15.023 2°51.559 266.6 11.1 267 12.9
2009-06-17 08:33:56 51°15.023 2°51.534 266.6 11.1 268 12.7
2009-06-17 08:34:01 51°15.023 2°51.51 268.3 11.1 271 12.7
2009-06-17 08:34:06 51°15.023 2°51.485 268.5 11.1 270 12.7
2009-06-17 08:34:11 51°15.024 2°51.461 270 11.1 273 12.7
2009-06-17 08:34:16 51°15.024 2°51.436 271 11.1 273 12.9
2009-06-17 08:34:21 51°15.025 2°51.411 271.5 11.1 274 13.1
2009-06-17 08:34:26 51°15.027 2°51.387 273 11.1 276 13.1
2009-06-17 08:34:31 51°15.029 2°51.363 276.1 11.2 278 13.1
2009-06-17 08:34:36 51°15.032 2°51.338 277.3 11.2 280 13.1
2009-06-17 08:34:41 51°15.035 2°51.314 278.8 11.2 281 13.2
2009-06-17 08:34:46 51°15.038 2°51.29 280.6 11.2 283 13.1
2009-06-17 08:34:51 51°15.042 2°51.265 281.7 11.3 283 13
2009-06-17 08:34:56 51°15.046 2°51.241 282.6 11.3 286 13.1
2009-06-17 08:35:01 51°15.05 2°51.217 283.9 11.3 285 13.3
2009-06-17 08:35:06 51°15.054 2°51.193 284.4 11.3 286 13.4
2009-06-17 08:35:11 51°15.059 2°51.169 284.6 11.3 286 13.4
2009-06-17 08:35:16 51°15.063 2°51.146 285.4 11.3 287 13.6
2009-06-17 08:35:21 51°15.068 2°51.122 285.4 11.3 287 13.5
2009-06-17 08:35:26 51°15.072 2°51.097 285.5 11.3 287 13.5
2009-06-17 08:35:31 51°15.077 2°51.073 286 11.4 288 13.4
2009-06-17 08:35:36 51°15.082 2°51.049 286.1 11.4 288 13.5
2009-06-17 08:35:41 51°15.087 2°51.026 286.9 11.4 288 13.7
2009-06-17 08:35:46 51°15.092 2°51.002 287.3 11.4 288 13.8
2009-06-17 08:35:51 51°15.097 2°50.978 287.7 11.4 289 13.6
2009-06-17 08:35:56 51°15.102 2°50.954 287.3 11.4 288 13.7
2009-06-17 08:36:01 51°15.107 2°50.93 287.2 11.3 288 13.9
2009-06-17 08:36:06 51°15.111 2°50.906 287.1 11.4 287 13.9
2009-06-17 08:36:11 51°15.116 2°50.882 286.8 11.4 287 13.8
2009-06-17 08:36:16 51°15.121 2°50.858 286.5 11.4 287 13.8
2009-06-17 08:36:21 51°15.125 2°50.834 286.6 11.4 287 13.6
2009-06-17 08:36:26 51°15.13 2°50.81 287.1 11.4 288 13.6
2009-06-17 08:36:31 51°15.135 2°50.786 287 11.4 287 13.7
2009-06-17 08:36:36 51°15.139 2°50.761 286.4 11.5 286 13.6
2009-06-17 08:36:41 51°15.143 2°50.737 285.7 11.5 286 13.7
2009-06-17 08:36:46 51°15.148 2°50.712 286.1 11.5 286 13.9
2009-06-17 08:36:51 51°15.153 2°50.688 286.3 11.5 287 13.8
2009-06-17 08:36:56 51°15.157 2°50.664 286.2 11.5 286 13.9
2009-06-17 08:37:01 51°15.161 2°50.639 285.1 11.5 286 13.9
2009-06-17 08:37:06 51°15.166 2°50.615 285.2 11.5 286 13.9
2009-06-17 08:37:11 51°15.17 2°50.591 284.8 11.5 285 14
2009-06-17 08:37:16 51°15.174 2°50.566 284.3 11.5 286 14
2009-06-17 08:37:21 51°15.179 2°50.542 284.3 11.4 286 14
2009-06-17 08:37:26 51°15.183 2°50.518 285.1 11.4 287 13.9
2009-06-17 08:37:31 51°15.188 2°50.493 285.3 11.4 287 14
2009-06-17 08:37:36 51°15.192 2°50.469 285.6 11.5 287 13.9
2009-06-17 08:37:41 51°15.197 2°50.445 285.5 11.5 286 14.1
2009-06-17 08:37:46 51°15.201 2°50.421 285.8 11.4 286 14.1
2009-06-17 08:37:51 51°15.205 2°50.396 285.4 11.4 285 14.1
2009-06-17 08:37:56 51°15.21 2°50.372 284.6 11.4 286 14
2009-06-17 08:38:01 51°15.214 2°50.348 284.6 11.4 285 14.2
2009-06-17 08:38:06 51°15.218 2°50.323 284.2 11.4 285 14.2
2009-06-17 08:38:11 51°15.222 2°50.299 284.2 11.5 285 14.1
2009-06-17 08:38:16 51°15.226 2°50.274 284.5 11.4 286 14
2009-06-17 08:38:21 51°15.231 2°50.25 284.8 11.4 286 14.1
2009-06-17 08:38:26 51°15.235 2°50.226 284.7 11.4 286 14.1
2009-06-17 08:38:31 51°15.239 2°50.201 284 11.4 285 14.2
2009-06-17 08:38:36 51°15.243 2°50.177 283.9 11.4 285 14.1
2009-06-17 08:38:41 51°15.247 2°50.153 283.9 11.4 284 14.2
2009-06-17 08:38:46 51°15.251 2°50.128 283.3 11.4 284 14.1
2009-06-17 08:38:51 51°15.255 2°50.104 283.4 11.4 285 14.1
2009-06-17 08:38:56 51°15.259 2°50.079 283.3 11.4 285 14.2
2009-06-17 08:39:01 51°15.263 2°50.055 283.5 11.4 285 14.4
2009-06-17 08:39:06 51°15.267 2°50.031 283.9 11.5 285 13.9
2009-06-17 08:39:11 51°15.271 2°50.006 283.7 11.4 286 14.1
2009-06-17 08:39:16 51°15.275 2°49.982 283.8 11.4 285 14.3
2009-06-17 08:39:21 51°15.28 2°49.958 283.9 11.5 286 14.3
2009-06-17 08:39:26 51°15.284 2°49.933 284.1 11.5 286 14.1
2009-06-17 08:39:31 51°15.289 2°49.909 284.6 11.4 287 14.2
2009-06-17 08:39:36 51°15.293 2°49.885 285.5 11.4 287 14.2
2009-06-17 08:39:41 51°15.298 2°49.861 285.6 11.5 287 14.1
2009-06-17 08:39:46 51°15.303 2°49.837 285.8 11.5 287 14.2
2009-06-17 08:39:51 51°15.308 2°49.813 285.6 11.4 287 14.1
2009-06-17 08:39:56 51°15.312 2°49.788 285.9 11.5 287 14.4
2009-06-17 08:40:01 51°15.317 2°49.764 285.7 11.5 288 14.2
2009-06-17 08:40:06 51°15.321 2°49.74 285.5 11.4 285 14.2
2009-06-17 08:40:11 51°15.327 2°49.716 285.4 11.5 289 14.1
2009-06-17 08:40:16 51°15.331 2°49.692 286 11.4 287 14.1
2009-06-17 08:40:21 51°15.336 2°49.668 285.4 11.4 287 14.1
2009-06-17 08:40:26 51°15.34 2°49.644 285.6 11.4 287 14.3
2009-06-17 08:40:31 51°15.345 2°49.62 285.5 11.4 288 14.2
2009-06-17 08:40:36 51°15.35 2°49.595 285.7 11.4 287 14.3
2009-06-17 08:40:41 51°15.354 2°49.571 285.4 11.4 286 14.4
2009-06-17 08:40:46 51°15.359 2°49.547 284.7 11.4 287 14.2
2009-06-17 08:40:51 51°15.363 2°49.523 284.2 11.4 285 14.1
2009-06-17 08:40:56 51°15.367 2°49.499 283.6 11.4 286 14.4
2009-06-17 08:41:01 51°15.372 2°49.475 284 11.4 286 14.4
2009-06-17 08:41:05 51°15.375 2°49.455 284.6 11.4 288 14.4
2009-06-17 08:41:11 51°15.381 2°49.426 285 11.4 286 14.5
2009-06-17 08:41:16 51°15.385 2°49.402 285 11.4 286 14.5
2009-06-17 08:41:21 51°15.39 2°49.378 284.9 11.4 287 14.2
2009-06-17 08:41:26 51°15.394 2°49.354 283.9 11.4 286 14.2
2009-06-17 08:41:31 51°15.398 2°49.33 283.8 11.4 286 14.2
2009-06-17 08:41:36 51°15.402 2°49.306 284.2 11.4 285 14.3
2009-06-17 08:41:41 51°15.407 2°49.281 284.3 11.4 285 14.4
2009-06-17 08:41:46 51°15.411 2°49.257 284.1 11.3 286 14.2
2009-06-17 08:41:51 51°15.415 2°49.233 284.7 11.3 285 14.1
2009-06-17 08:41:56 51°15.419 2°49.209 284.3 11.3 285 14.2
2009-06-17 08:42:01 51°15.423 2°49.184 283.8 11.3 284 14.2
2009-06-17 08:42:06 51°15.426 2°49.16 283.4 11.3 283 14.2
2009-06-17 08:42:11 51°15.43 2°49.136 283.3 11.4 285 14.1
2009-06-17 08:42:16 51°15.434 2°49.111 283.5 11.4 284 14.3
2009-06-17 08:42:21 51°15.438 2°49.087 283.9 11.4 285 14.3
2009-06-17 08:42:26 51°15.442 2°49.063 284.6 11.4 286 14
2009-06-17 08:42:31 51°15.447 2°49.039 285.3 11.3 286 13.8
2009-06-17 08:42:36 51°15.451 2°49.015 284.6 11.3 285 13.9
2009-06-17 08:42:41 51°15.455 2°48.99 283.9 11.4 286 13.8
2009-06-17 08:42:46 51°15.459 2°48.966 284.8 11.3 285 13.6
2009-06-17 08:42:51 51°15.463 2°48.942 284.6 11.3 285 13.5
2009-06-17 08:42:56 51°15.467 2°48.918 283.7 11.3 284 13.4
2009-06-17 08:43:01 51°15.471 2°48.894 283.7 11.3 284 13
2009-06-17 08:43:06 51°15.474 2°48.87 283 11.2 284 12.8
2009-06-17 08:43:11 51°15.478 2°48.845 283.1 11.3 282 12.7
2009-06-17 08:43:16 51°15.481 2°48.821 282.7 11.3 283 12.5
2009-06-17 08:43:21 51°15.485 2°48.797 282.6 11.3 283 12.2
2009-06-17 08:43:26 51°15.488 2°48.772 282.6 11.3 283 12.2
2009-06-17 08:43:31 51°15.492 2°48.748 282.9 11.4 283 12.4
2009-06-17 08:43:36 51°15.496 2°48.724 283.8 11.3 283 12
2009-06-17 08:43:41 51°15.499 2°48.699 283.2 11.3 284 11.7
2009-06-17 08:43:46 51°15.503 2°48.675 283 11.3 283 12
2009-06-17 08:43:51 51°15.507 2°48.651 283.2 11.3 284 12
2009-06-17 08:43:56 51°15.511 2°48.627 283.7 11.3 284 11.9
2009-06-17 08:44:01 51°15.515 2°48.603 283.5 11.3 283 11.8
2009-06-17 08:44:06 51°15.519 2°48.578 283.6 11.4 285 11.6
2009-06-17 08:44:11 51°15.523 2°48.554 284.6 11.4 285 11.7
2009-06-17 08:44:16 51°15.527 2°48.53 285.1 11.4 285 11.5
2009-06-17 08:44:21 51°15.531 2°48.505 284.5 11.4 285 11.6
2009-06-17 08:44:26 51°15.535 2°48.481 284.1 11.4 284 11.7
2009-06-17 08:44:31 51°15.539 2°48.456 284 11.4 286 11.6
2009-06-17 08:44:36 51°15.543 2°48.432 283.8 11.4 285 11.7
2009-06-17 08:44:41 51°15.547 2°48.408 284.9 11.4 289 11.9
2009-06-17 08:44:46 51°15.553 2°48.385 287.8 11.4 289 11.9
2009-06-17 08:44:51 51°15.558 2°48.361 288.9 11.4 291 11.8
2009-06-17 08:44:56 51°15.564 2°48.338 290.8 11.4 292 12
2009-06-17 08:45:01 51°15.57 2°48.315 291.5 11.3 292 12.3
2009-06-17 08:45:06 51°15.577 2°48.292 292.9 11.4 294 12.2
2009-06-17 08:45:11 51°15.583 2°48.269 293.4 11.4 295 12.2
2009-06-17 08:45:16 51°15.59 2°48.246 294.5 11.4 296 12.2
2009-06-17 08:45:21 51°15.597 2°48.223 295 11.4 295 12.3
2009-06-17 08:45:26 51°15.604 2°48.201 295.5 11.5 297 12.3
2009-06-17 08:45:31 51°15.611 2°48.178 296.4 11.5 297 12.5
2009-06-17 08:45:36 51°15.618 2°48.155 296.3 11.5 297 12.7
2009-06-17 08:45:41 51°15.626 2°48.132 296.5 11.5 297 12.7
2009-06-17 08:45:46 51°15.633 2°48.11 295.9 11.5 296 12.8
2009-06-17 08:45:51 51°15.64 2°48.087 296.4 11.5 298 12.9
2009-06-17 08:45:56 51°15.648 2°48.064 296.9 11.5 297 13.2
2009-06-17 08:46:01 51°15.655 2°48.042 296.9 11.5 297 13.3
2009-06-17 08:46:05 51°15.66 2°48.024 296.7 11.5 297 13.3
2009-06-17 08:46:11 51°15.669 2°47.996 296.3 11.5 297 13.5
2009-06-17 08:46:16 51°15.676 2°47.973 296.2 11.5 296 13.8
2009-06-17 08:46:21 51°15.684 2°47.951 296.8 11.5 298 13.7
2009-06-17 08:46:26 51°15.691 2°47.928 296.4 11.5 297 13.9
2009-06-17 08:46:31 51°15.698 2°47.905 296.2 11.5 297 14.1
2009-06-17 08:46:36 51°15.705 2°47.883 296.3 11.4 296 14.3
2009-06-17 08:46:41 51°15.713 2°47.86 296.7 11.5 298 14.3
2009-06-17 08:46:46 51°15.72 2°47.837 296.9 11.5 297 14.5
2009-06-17 08:46:51 51°15.727 2°47.814 296.9 11.5 298 14.7
2009-06-17 08:46:56 51°15.735 2°47.792 297 11.6 298 15
2009-06-17 08:47:01 51°15.742 2°47.769 297.3 11.6 298 15.4
2009-06-17 08:47:06 51°15.75 2°47.747 297.5 11.6 298 15.6
2009-06-17 08:47:11 51°15.757 2°47.724 297.3 11.6 297 15.6
2009-06-17 08:47:16 51°15.765 2°47.701 297.3 11.6 299 15.7
2009-06-17 08:47:21 51°15.772 2°47.679 297.5 11.5 297 15.6
2009-06-17 08:47:26 51°15.78 2°47.657 297 11.5 299 16.1
2009-06-17 08:47:31 51°15.787 2°47.634 297.5 11.5 297 16.2
2009-06-17 08:47:36 51°15.795 2°47.611 297.3 11.5 298 16.1
2009-06-17 08:47:41 51°15.803 2°47.589 297.4 11.5 299 16.3
2009-06-17 08:47:46 51°15.81 2°47.566 297.5 11.5 297 16.6
2009-06-17 08:47:51 51°15.818 2°47.544 297.2 11.5 298 16.5
2009-06-17 08:47:56 51°15.825 2°47.521 297.4 11.5 298 16.5
2009-06-17 08:48:01 51°15.833 2°47.499 297.2 11.5 298 16.6
2009-06-17 08:48:06 51°15.84 2°47.476 296.2 11.5 297 16.7
2009-06-17 08:48:11 51°15.847 2°47.454 295.9 11.5 297 17.2
2009-06-17 08:48:16 51°15.854 2°47.431 295.1 11.5 296 17.6
2009-06-17 08:48:21 51°15.861 2°47.408 295.2 11.5 297 17.5
2009-06-17 08:48:26 51°15.868 2°47.385 294.7 11.4 296 17.5
2009-06-17 08:48:31 51°15.876 2°47.363 295.3 11.5 296 17.6
2009-06-17 08:48:36 51°15.883 2°47.34 295.7 11.5 298 17.4
2009-06-17 08:48:41 51°15.89 2°47.317 295.8 11.5 296 17.3
2009-06-17 08:48:46 51°15.897 2°47.294 295.4 11.5 297 17.4
2009-06-17 08:48:51 51°15.904 2°47.272 295.5 11.5 296 17.4
2009-06-17 08:48:56 51°15.911 2°47.249 295 11.5 296 17.7
2009-06-17 08:49:01 51°15.918 2°47.226 295.2 11.5 297 17.7
2009-06-17 08:49:05 51°15.924 2°47.208 295.6 11.6 297 17.9
2009-06-17 08:49:11 51°15.933 2°47.181 296.4 11.6 297 18
2009-06-17 08:49:16 51°15.94 2°47.158 296.7 11.5 298 17.8
2009-06-17 08:49:21 51°15.948 2°47.136 296.5 11.5 298 17.7
2009-06-17 08:49:26 51°15.955 2°47.113 296.4 11.6 298 17.8
2009-06-17 08:49:31 51°15.962 2°47.09 296.6 11.6 299 17.7
2009-06-17 08:49:36 51°15.969 2°47.067 296.3 11.6 296 17.8
2009-06-17 08:49:41 51°15.977 2°47.045 295.3 11.6 297 17.7
2009-06-17 08:49:46 51°15.984 2°47.022 295.5 11.5 296 17.5
2009-06-17 08:49:51 51°15.991 2°46.999 295.4 11.6 298 17.4
2009-06-17 08:49:56 51°15.999 2°46.977 296.4 11.5 297 17.2
2009-06-17 08:50:01 51°16.006 2°46.954 296 11.5 296 17.1
2009-06-17 08:50:06 51°16.013 2°46.931 295.7 11.5 297 17.1
2009-06-17 08:50:11 51°16.02 2°46.909 295.8 11.5 297 17.1
2009-06-17 08:50:16 51°16.028 2°46.886 295.8 11.5 297 16.8
2009-06-17 08:50:21 51°16.035 2°46.864 296.1 11.5 298 16.4
2009-06-17 08:50:26 51°16.042 2°46.841 296.1 11.4 296 16.1
2009-06-17 08:50:31 51°16.049 2°46.818 294.6 11.4 296 16.1
2009-06-17 08:50:36 51°16.057 2°46.796 295 11.4 297 15.8
2009-06-17 08:50:41 51°16.063 2°46.773 294.5 11.4 295 15.9
2009-06-17 08:50:46 51°16.071 2°46.751 294.7 11.4 297 15.7
2009-06-17 08:50:51 51°16.077 2°46.728 295.1 11.4 296 15.5
2009-06-17 08:50:56 51°16.085 2°46.705 295.9 11.4 297 15.5
2009-06-17 08:51:01 51°16.092 2°46.683 295.7 11.4 296 15.3
2009-06-17 08:51:06 51°16.099 2°46.66 295.3 11.4 296 15.1
2009-06-17 08:51:11 51°16.106 2°46.637 294.8 11.5 296 14.2
2009-06-17 08:51:16 51°16.113 2°46.614 295.1 11.5 297 13.7
2009-06-17 08:51:21 51°16.12 2°46.592 295.3 11.5 296 13.7
2009-06-17 08:51:26 51°16.128 2°46.569 295.8 11.5 298 14.1
2009-06-17 08:51:31 51°16.135 2°46.547 296 11.5 298 14
2009-06-17 08:51:36 51°16.143 2°46.524 296.5 11.5 299 13.7
2009-06-17 08:51:41 51°16.15 2°46.502 296.5 11.5 298 13.7
2009-06-17 08:51:46 51°16.158 2°46.479 296.2 11.5 298 13.6
2009-06-17 08:51:51 51°16.165 2°46.457 295.5 11.4 297 13.2
2009-06-17 08:51:56 51°16.172 2°46.435 295 11.4 297 13.3
2009-06-17 08:52:01 51°16.18 2°46.413 294.6 11.3 298 12.8
2009-06-17 08:52:06 51°16.186 2°46.39 293.8 11.3 296 13
2009-06-17 08:52:11 51°16.194 2°46.368 294.2 11.3 297 12.7
2009-06-17 08:52:16 51°16.2 2°46.345 294 11.4 297 12.4
2009-06-17 08:52:21 51°16.208 2°46.323 294.8 11.4 297 12.6
2009-06-17 08:52:26 51°16.215 2°46.3 295.2 11.4 297 12
2009-06-17 08:52:31 51°16.223 2°46.278 295.5 11.4 298 11.7
2009-06-17 08:52:36 51°16.23 2°46.255 295.7 11.4 298 11.6
2009-06-17 08:52:41 51°16.238 2°46.233 295.7 11.4 298 11.5
2009-06-17 08:52:45 51°16.243 2°46.215 294.9 11.4 297 11.8
2009-06-17 08:52:51 51°16.251 2°46.187 294.7 11.5 296 11.7
2009-06-17 08:52:56 51°16.259 2°46.165 294.8 11.4 296 11.6
2009-06-17 08:53:01 51°16.265 2°46.142 294 11.5 296 11.5
2009-06-17 08:53:06 51°16.272 2°46.119 293.9 11.5 297 11.4
2009-06-17 08:53:11 51°16.279 2°46.096 294.3 11.5 295 11.6
2009-06-17 08:53:16 51°16.287 2°46.073 294.3 11.6 298 11.5
2009-06-17 08:53:21 51°16.294 2°46.05 294.3 11.5 296 11.4
2009-06-17 08:53:25 51°16.3 2°46.032 294 11.5 298 10.9
2009-06-17 08:53:31 51°16.308 2°46.005 294.6 11.6 297 10.7
2009-06-17 08:53:36 51°16.316 2°45.982 295.3 11.6 299 10.8
2009-06-17 08:53:41 51°16.323 2°45.96 295.7 11.5 297 10.9
2009-06-17 08:53:46 51°16.331 2°45.937 296.1 11.6 300 10.9
2009-06-17 08:53:51 51°16.339 2°45.915 297.4 11.6 301 10.7
2009-06-17 08:53:56 51°16.348 2°45.893 298.3 11.6 302 10.8
2009-06-17 08:54:01 51°16.356 2°45.87 298.7 11.7 303 10.9
2009-06-17 08:54:06 51°16.364 2°45.849 299.4 11.7 301 11.2
2009-06-17 08:54:11 51°16.373 2°45.826 299.1 11.7 301 11.1
2009-06-17 08:54:16 51°16.381 2°45.804 298.8 11.8 301 11.6
2009-06-17 08:54:21 51°16.39 2°45.782 299.9 11.7 303 11.2
2009-06-17 08:54:26 51°16.398 2°45.76 299.8 11.7 301 11.4
2009-06-17 08:54:31 51°16.407 2°45.738 299.8 11.8 302 11.8
2009-06-17 08:54:36 51°16.416 2°45.716 300.6 11.8 302 11.8
2009-06-17 08:54:41 51°16.425 2°45.694 300.2 11.7 303 11.8
2009-06-17 08:54:45 51°16.432 2°45.677 300.9 11.8 302 11.9
2009-06-17 08:54:51 51°16.442 2°45.65 300.6 11.8 303 11.8
2009-06-17 08:54:56 51°16.451 2°45.628 301 11.8 303 11.9
2009-06-17 08:55:01 51°16.46 2°45.606 300.4 11.8 302 11.9
2009-06-17 08:55:05 51°16.467 2°45.588 300.1 11.8 302 11.9
2009-06-17 08:55:11 51°16.477 2°45.561 299.8 11.8 301 11.9
2009-06-17 08:55:16 51°16.485 2°45.539 299.1 11.7 302 11.7
2009-06-17 08:55:21 51°16.494 2°45.517 298.8 11.8 300 11.8
2009-06-17 08:55:26 51°16.502 2°45.494 298.3 11.7 301 11.9
2009-06-17 08:55:31 51°16.51 2°45.472 298.2 11.8 299 12
2009-06-17 08:55:36 51°16.518 2°45.449 297.7 11.7 300 12.3
2009-06-17 08:55:41 51°16.526 2°45.427 297.8 11.7 300 12.4
2009-06-17 08:55:46 51°16.535 2°45.404 298 11.8 300 12.6
2009-06-17 08:55:51 51°16.543 2°45.382 298.4 11.7 301 12.6
2009-06-17 08:55:56 51°16.551 2°45.36 298.2 11.7 301 12.7
2009-06-17 08:56:01 51°16.56 2°45.337 298.4 11.7 301 12.9
2009-06-17 08:56:06 51°16.568 2°45.315 298.5 11.7 301 12.6
2009-06-17 08:56:11 51°16.576 2°45.292 298.5 11.7 300 12.4
2009-06-17 08:56:16 51°16.584 2°45.27 298.1 11.7 300 12.2
2009-06-17 08:56:21 51°16.593 2°45.248 298.1 11.7 301 11.9
2009-06-17 08:56:26 51°16.601 2°45.225 298.2 11.7 301 11.7
2009-06-17 08:56:31 51°16.609 2°45.203 298.4 11.7 301 11.7
2009-06-17 08:56:36 51°16.617 2°45.181 298.5 11.7 302 11.5
2009-06-17 08:56:41 51°16.626 2°45.159 299.2 11.7 302 11.5
2009-06-17 08:56:45 51°16.633 2°45.141 299.5 11.7 302 11.9
2009-06-17 08:56:51 51°16.643 2°45.115 299.8 11.8 302 11.6
2009-06-17 08:56:56 51°16.652 2°45.093 300.4 11.8 303 11.6
2009-06-17 08:57:01 51°16.661 2°45.071 300.9 11.7 303 11.9
2009-06-17 08:57:06 51°16.67 2°45.049 300.9 11.8 303 11.8
2009-06-17 08:57:11 51°16.678 2°45.027 300.7 11.8 302 11.7
2009-06-17 08:57:16 51°16.687 2°45.005 300.8 11.8 302 11.4
2009-06-17 08:57:21 51°16.695 2°44.982 300.4 11.7 300 11.5
2009-06-17 08:57:25 51°16.702 2°44.965 299.5 11.8 302 11.3
2009-06-17 08:57:31 51°16.712 2°44.938 299.8 11.8 302 11.1
2009-06-17 08:57:36 51°16.721 2°44.916 300.6 11.8 303 10.8
2009-06-17 08:57:41 51°16.729 2°44.894 300.6 11.8 301 10.6
2009-06-17 08:57:46 51°16.738 2°44.871 300.4 11.8 301 11.7
2009-06-17 08:57:51 51°16.747 2°44.849 300.6 11.8 302 11.9
2009-06-17 08:57:56 51°16.755 2°44.827 300.7 11.8 302 12
2009-06-17 08:58:01 51°16.764 2°44.805 300.8 11.9 302 12.8
2009-06-17 08:58:06 51°16.773 2°44.782 300.8 11.9 302 13.3
2009-06-17 08:58:11 51°16.781 2°44.76 300.7 11.9 301 14
2009-06-17 08:58:16 51°16.79 2°44.737 300.5 11.9 301 14.3
2009-06-17 08:58:21 51°16.799 2°44.715 300.3 11.9 302 14.2
2009-06-17 08:58:26 51°16.807 2°44.692 300.6 11.9 301 14.4
2009-06-17 08:58:31 51°16.816 2°44.67 300.3 11.9 302 14.2
2009-06-17 08:58:36 51°16.824 2°44.647 300.3 11.9 301 14.4
2009-06-17 08:58:41 51°16.833 2°44.625 300 11.9 301 14.5
2009-06-17 08:58:45 51°16.84 2°44.607 300.2 11.9 302 14.4
2009-06-17 08:58:51 51°16.85 2°44.58 300.2 11.9 301 14.6
2009-06-17 08:58:56 51°16.858 2°44.557 300.3 11.9 302 15.2
2009-06-17 08:59:01 51°16.867 2°44.535 300.4 11.9 302 15.7
2009-06-17 08:59:05 51°16.874 2°44.517 300.6 11.9 300 16.1
2009-06-17 08:59:11 51°16.884 2°44.49 299.9 11.8 302 15.9
2009-06-17 08:59:16 51°16.893 2°44.468 300.2 11.8 301 15.9
2009-06-17 08:59:21 51°16.901 2°44.445 299.8 11.8 301 16.2
2009-06-17 08:59:26 51°16.91 2°44.422 299.7 11.9 301 16.5
2009-06-17 08:59:31 51°16.918 2°44.4 300 11.9 301 16.7
2009-06-17 08:59:36 51°16.926 2°44.377 299.8 11.9 300 16.8
2009-06-17 08:59:41 51°16.935 2°44.355 299.1 11.8 300 16.7
2009-06-17 08:59:45 51°16.941 2°44.337 298.4 11.8 300 16.6
2009-06-17 08:59:51 51°16.951 2°44.31 298.4 11.8 299 16.9
2009-06-17 08:59:56 51°16.959 2°44.287 298 11.8 298 17
2009-06-17 09:00:01 51°16.967 2°44.264 297.4 11.7 300 16.9
2009-06-17 09:00:06 51°16.974 2°44.241 298.5 11.7 300 16.8
2009-06-17 09:00:11 51°16.983 2°44.219 298.9 11.7 300 16.7
2009-06-17 09:00:16 51°16.991 2°44.197 298.9 11.7 300 16.9
2009-06-17 09:00:21 51°16.999 2°44.174 298.8 11.7 299 17
2009-06-17 09:00:26 51°17.007 2°44.152 298.4 11.7 300 16.8
2009-06-17 09:00:31 51°17.015 2°44.129 298.3 11.8 300 16.7
2009-06-17 09:00:36 51°17.023 2°44.106 298.3 11.8 299 16.5
2009-06-17 09:00:41 51°17.032 2°44.084 298.8 11.7 301 16.3
2009-06-17 09:00:46 51°17.04 2°44.061 299.2 11.7 300 16.2
2009-06-17 09:00:51 51°17.048 2°44.039 299.4 11.8 301 16.2
2009-06-17 09:00:56 51°17.056 2°44.016 299.1 11.7 300 16.2
2009-06-17 09:01:01 51°17.064 2°43.994 298.8 11.8 301 16.3
2009-06-17 09:01:05 51°17.071 2°43.976 299.1 11.8 300 16.3
2009-06-17 09:01:11 51°17.081 2°43.949 299.4 11.7 301 16
2009-06-17 09:01:16 51°17.089 2°43.926 299.6 11.7 301 15.9
2009-06-17 09:01:21 51°17.097 2°43.904 299.1 11.7 299 16.1
2009-06-17 09:01:25 51°17.103 2°43.886 298.5 11.7 299 15.8
2009-06-17 09:01:31 51°17.113 2°43.859 298.4 11.8 299 15.5
2009-06-17 09:01:36 51°17.121 2°43.836 298.1 11.7 298 15.2
2009-06-17 09:01:41 51°17.129 2°43.813 297.8 11.7 301 14.8
2009-06-17 09:01:46 51°17.137 2°43.79 298.8 11.7 299 15
2009-06-17 09:01:51 51°17.145 2°43.768 299.1 11.7 300 15.6
2009-06-17 09:01:56 51°17.153 2°43.746 299.3 11.8 301 15.8
2009-06-17 09:02:01 51°17.162 2°43.723 299.8 11.8 301 15.8
2009-06-17 09:02:06 51°17.17 2°43.7 300.2 11.8 301 15.8
2009-06-17 09:02:11 51°17.178 2°43.677 299.6 11.7 301 15.6
2009-06-17 09:02:16 51°17.186 2°43.655 299.4 11.8 300 15.8
2009-06-17 09:02:21 51°17.195 2°43.632 299.2 11.8 301 15.5
2009-06-17 09:02:26 51°17.203 2°43.61 299.9 11.8 301 15.1
2009-06-17 09:02:31 51°17.211 2°43.587 299.7 11.8 301 15.3
2009-06-17 09:02:36 51°17.22 2°43.565 299.8 11.8 300 16.1
2009-06-17 09:02:41 51°17.228 2°43.543 300 11.9 301 16.2
2009-06-17 09:02:45 51°17.235 2°43.525 300.4 11.9 301 15.9
2009-06-17 09:02:51 51°17.245 2°43.498 300.2 11.8 301 16.2
2009-06-17 09:02:56 51°17.253 2°43.475 300 11.8 299 16.1
2009-06-17 09:03:01 51°17.262 2°43.453 299.6 11.8 301 15.7
2009-06-17 09:03:06 51°17.27 2°43.43 299.8 11.8 300 15.6
2009-06-17 09:03:11 51°17.278 2°43.407 300.2 11.8 301 15.1
2009-06-17 09:03:16 51°17.287 2°43.385 300 11.8 301 14.3
2009-06-17 09:03:21 51°17.295 2°43.362 299.8 11.8 300 13.5
2009-06-17 09:03:25 51°17.301 2°43.344 299.3 11.7 299 12.4
2009-06-17 09:03:31 51°17.311 2°43.317 299 11.7 299 13.3
2009-06-17 09:03:36 51°17.319 2°43.295 298.9 11.7 301 13.1
2009-06-17 09:03:41 51°17.327 2°43.272 299.8 11.7 299 12.1
2009-06-17 09:03:46 51°17.335 2°43.25 299.6 11.7 302 14
2009-06-17 09:03:51 51°17.343 2°43.227 299.8 11.7 299 14.1
2009-06-17 09:03:56 51°17.352 2°43.205 299.5 11.8 301 13.3
2009-06-17 09:04:01 51°17.359 2°43.182 299.3 11.8 299 12.6
2009-06-17 09:04:06 51°17.368 2°43.16 299.7 11.7 301 11.4
2009-06-17 09:04:11 51°17.376 2°43.137 300.3 11.8 301 12.9
2009-06-17 09:04:16 51°17.385 2°43.115 300.2 11.8 302 12.9
2009-06-17 09:04:21 51°17.393 2°43.093 300.2 11.8 300 12.3
2009-06-17 09:04:26 51°17.402 2°43.07 299.8 11.8 302 12.1
2009-06-17 09:04:32 51°17.411 2°43.043 300.2 11.8 299 12.3
2009-06-17 09:04:36 51°17.418 2°43.025 299.8 11.8 301 12
2009-06-17 09:04:41 51°17.427 2°43.003 300 11.8 301 11.8
2009-06-17 09:04:46 51°17.435 2°42.981 299.8 11.8 301 11.6
2009-06-17 09:04:51 51°17.444 2°42.958 300.3 11.8 300 11
2009-06-17 09:04:57 51°17.454 2°42.932 299.9 11.8 302 11.5
2009-06-17 09:05:01 51°17.46 2°42.914 300.7 11.7 299 11.6
2009-06-17 09:05:05 51°17.467 2°42.897 299.6 11.7 301 12.1
2009-06-17 09:05:11 51°17.477 2°42.87 299.2 11.7 300 12.6
2009-06-17 09:05:16 51°17.485 2°42.848 298.9 11.8 302 13.5
2009-06-17 09:05:21 51°17.493 2°42.825 299.1 11.7 299 14
2009-06-17 09:05:26 51°17.501 2°42.802 297.9 11.8 299 14.7
2009-06-17 09:05:31 51°17.51 2°42.78 298.5 11.8 299 14.9
2009-06-17 09:05:36 51°17.517 2°42.757 298.5 11.8 301 15.8
2009-06-17 09:05:41 51°17.526 2°42.735 299.3 11.8 302 17.3
2009-06-17 09:05:46 51°17.534 2°42.712 299.2 11.9 301 19.2
2009-06-17 09:05:51 51°17.543 2°42.69 299.8 11.9 303 20.7
2009-06-17 09:05:56 51°17.552 2°42.668 300 11.9 302 21.8
2009-06-17 09:06:01 51°17.561 2°42.646 299.9 11.8 303 22.1
2009-06-17 09:06:06 51°17.569 2°42.624 298.3 11.8 300 22.6
2009-06-17 09:06:11 51°17.578 2°42.601 297.9 11.8 301 22.3
2009-06-17 09:06:16 51°17.585 2°42.578 296.8 11.7 299 22.7
2009-06-17 09:06:21 51°17.594 2°42.556 296.2 11.8 301 22.8
2009-06-17 09:06:25 51°17.6 2°42.537 296.6 11.8 298 23.2
2009-06-17 09:06:31 51°17.61 2°42.51 295.7 11.8 301 23.5
2009-06-17 09:06:36 51°17.617 2°42.487 296.2 11.8 297 23.9
2009-06-17 09:06:41 51°17.625 2°42.465 295.1 11.8 300 23.9
2009-06-17 09:06:46 51°17.633 2°42.442 294.5 11.7 297 24
2009-06-17 09:06:51 51°17.641 2°42.419 294.1 11.8 298 24.2
2009-06-17 09:06:56 51°17.648 2°42.396 294.1 11.8 297 24.2
2009-06-17 09:07:01 51°17.656 2°42.373 294.6 11.8 300 24.1
2009-06-17 09:07:05 51°17.662 2°42.355 294.8 11.7 298 24.3
2009-06-17 09:07:11 51°17.672 2°42.327 294.4 11.7 297 24.3
2009-06-17 09:07:16 51°17.679 2°42.304 293.5 11.7 296 24.2
2009-06-17 09:07:21 51°17.686 2°42.281 293.3 11.7 297 24.4
2009-06-17 09:07:26 51°17.693 2°42.258 293.4 11.7 296 24.5
2009-06-17 09:07:31 51°17.7 2°42.234 292.8 11.7 297 24.6
2009-06-17 09:07:36 51°17.707 2°42.211 293.3 11.7 296 24.6
2009-06-17 09:07:41 51°17.715 2°42.188 294 11.7 299 24.7
2009-06-17 09:07:45 51°17.721 2°42.17 294.3 11.7 296 24.8
2009-06-17 09:07:51 51°17.73 2°42.143 294.3 11.7 299 24.8
2009-06-17 09:07:56 51°17.737 2°42.119 294.2 11.7 295 25
2009-06-17 09:08:01 51°17.745 2°42.097 294 11.7 298 24.9
2009-06-17 09:08:06 51°17.752 2°42.073 293.7 11.6 297 24.8
2009-06-17 09:08:11 51°17.759 2°42.05 293.3 11.6 296 24.8
2009-06-17 09:08:16 51°17.766 2°42.027 293.3 11.6 296 24.8
2009-06-17 09:08:21 51°17.773 2°42.004 293.4 11.6 295 24.9
2009-06-17 09:08:25 51°17.779 2°41.985 294.2 11.6 297 24.9
2009-06-17 09:08:31 51°17.787 2°41.958 295.2 11.7 296 24.8
2009-06-17 09:08:36 51°17.794 2°41.934 294.8 11.7 297 24.9
2009-06-17 09:08:41 51°17.802 2°41.911 295.1 11.7 297 24.8
2009-06-17 09:08:46 51°17.809 2°41.888 295.6 11.7 297 24.7
2009-06-17 09:08:51 51°17.817 2°41.865 295.7 11.7 298 24.7
2009-06-17 09:08:56 51°17.824 2°41.842 295.9 11.7 296 25.1
2009-06-17 09:09:01 51°17.832 2°41.819 296.3 11.7 298 24.9
2009-06-17 09:09:06 51°17.839 2°41.796 295.7 11.7 298 24.6
2009-06-17 09:09:11 51°17.845 2°41.773 295.5 11.7 295 25.1
2009-06-17 09:09:16 51°17.853 2°41.75 294.8 11.7 295 25.1
2009-06-17 09:09:21 51°17.86 2°41.726 294.9 11.7 296 24.3
2009-06-17 09:09:26 51°17.866 2°41.703 294 11.7 296 24.3
2009-06-17 09:09:31 51°17.874 2°41.679 294.5 11.7 295 24.4
2009-06-17 09:09:36 51°17.881 2°41.656 294.8 11.7 298 24.2
2009-06-17 09:09:41 51°17.888 2°41.633 295.5 11.7 296 24.5
2009-06-17 09:09:46 51°17.895 2°41.61 295 11.7 296 24.6
2009-06-17 09:09:51 51°17.903 2°41.587 295.5 11.7 297 24.4
2009-06-17 09:09:56 51°17.91 2°41.563 296.1 11.7 297 24.2
2009-06-17 09:10:01 51°17.918 2°41.541 296.2 11.7 297 24
2009-06-17 09:10:05 51°17.923 2°41.522 296.2 11.8 296 24.1
2009-06-17 09:10:11 51°17.932 2°41.494 296.1 11.7 297 23.9
2009-06-17 09:10:16 51°17.939 2°41.471 296 11.8 297 23.9
2009-06-17 09:10:21 51°17.947 2°41.448 296 11.7 297 23.9
2009-06-17 09:10:26 51°17.954 2°41.424 295.5 11.7 295 23.5
2009-06-17 09:10:31 51°17.961 2°41.401 295 11.7 295 22.8
2009-06-17 09:10:36 51°17.967 2°41.377 294.7 11.7 295 23.4
2009-06-17 09:10:41 51°17.974 2°41.354 294.2 11.7 295 23.6
2009-06-17 09:10:46 51°17.981 2°41.331 294.1 11.7 296 23.4
2009-06-17 09:10:51 51°17.988 2°41.307 294.3 11.7 295 23.2
2009-06-17 09:10:56 51°17.995 2°41.284 294.3 11.7 295 23.3
2009-06-17 09:11:01 51°18.002 2°41.261 295 11.7 297 22.6
2009-06-17 09:11:06 51°18.009 2°41.237 294.8 11.7 294 22.4
2009-06-17 09:11:11 51°18.016 2°41.214 294.1 11.7 296 21.5
2009-06-17 09:11:16 51°18.023 2°41.19 294.7 11.7 296 20
2009-06-17 09:11:21 51°18.03 2°41.167 294.9 11.7 295 21.5
2009-06-17 09:11:26 51°18.037 2°41.144 294.5 11.7 295 21.7
2009-06-17 09:11:31 51°18.044 2°41.12 294.4 11.7 296 21.6
2009-06-17 09:11:36 51°18.05 2°41.096 293.9 11.7 294 21.7
2009-06-17 09:11:41 51°18.058 2°41.073 294.7 11.7 297 21.4
2009-06-17 09:11:46 51°18.064 2°41.049 294.4 11.7 295 20.9
2009-06-17 09:11:51 51°18.071 2°41.026 294 11.7 295 19.7
2009-06-17 09:11:57 51°18.079 2°40.998 294.1 11.7 295 18.5
2009-06-17 09:12:01 51°18.085 2°40.98 294 11.7 296 19.3
2009-06-17 09:12:06 51°18.092 2°40.956 294.8 11.7 295 19.6
2009-06-17 09:12:11 51°18.099 2°40.933 294.6 11.7 296 18.2
2009-06-17 09:12:16 51°18.106 2°40.909 294.6 11.6 294 18.1
2009-06-17 09:12:21 51°18.113 2°40.886 294.2 11.6 296 17.4
2009-06-17 09:12:26 51°18.119 2°40.863 294.2 11.5 293 15.8
2009-06-17 09:12:31 51°18.126 2°40.84 294 11.5 296 15.4
2009-06-17 09:12:36 51°18.132 2°40.816 294 11.5 294 18
2009-06-17 09:12:41 51°18.139 2°40.793 294 11.6 295 18.3
2009-06-17 09:12:46 51°18.146 2°40.77 294.2 11.6 294 18.4
2009-06-17 09:12:51 51°18.153 2°40.746 294.2 11.7 295 18.8
2009-06-17 09:12:56 51°18.159 2°40.723 294.6 11.7 293 19.1
2009-06-17 09:13:01 51°18.167 2°40.7 294.7 11.7 297 15.7
2009-06-17 09:13:06 51°18.173 2°40.676 295.3 11.6 294 16.9
2009-06-17 09:13:11 51°18.18 2°40.653 294.9 11.6 296 17.6
2009-06-17 09:13:16 51°18.188 2°40.63 294.6 11.6 296 18.9
2009-06-17 09:13:21 51°18.194 2°40.607 294.8 11.7 296 18.3
2009-06-17 09:13:26 51°18.202 2°40.584 295 11.7 297 19.1
2009-06-17 09:13:31 51°18.209 2°40.561 295.1 11.7 297 19.4
2009-06-17 09:13:36 51°18.216 2°40.538 295.4 11.7 297 19.5
2009-06-17 09:13:41 51°18.223 2°40.514 295.1 11.7 296 19.9
2009-06-17 09:13:46 51°18.231 2°40.491 294.9 11.6 296 20.2
2009-06-17 09:13:51 51°18.238 2°40.468 294.8 11.7 298 19.9
2009-06-17 09:13:56 51°18.246 2°40.446 296.2 11.7 299 20.4
2009-06-17 09:14:01 51°18.253 2°40.423 296.2 11.6 298 20.9
2009-06-17 09:14:06 51°18.261 2°40.401 296.2 11.6 299 20.2
2009-06-17 09:14:11 51°18.269 2°40.379 297.2 11.6 300 17.3
2009-06-17 09:14:16 51°18.277 2°40.356 296.4 11.6 299 11.9
2009-06-17 09:14:21 51°18.285 2°40.334 296.7 11.6 301 14.8
2009-06-17 09:14:26 51°18.292 2°40.312 296.2 11.5 299 15.7
2009-06-17 09:14:31 51°18.3 2°40.29 295.9 11.4 297 15.8
2009-06-17 09:14:36 51°18.307 2°40.267 295 11.5 299 15.6
2009-06-17 09:14:41 51°18.315 2°40.245 294.8 11.4 298 14.8
2009-06-17 09:14:46 51°18.322 2°40.222 294.4 11.4 298 13.8
2009-06-17 09:14:51 51°18.33 2°40.2 294.7 11.4 299 14.4
2009-06-17 09:14:56 51°18.337 2°40.178 295.9 11.4 299 15.9
2009-06-17 09:15:01 51°18.345 2°40.156 296.2 11.4 300 16.3
2009-06-17 09:15:05 51°18.351 2°40.138 296.4 11.5 299 18.4
2009-06-17 09:15:11 51°18.361 2°40.112 296.8 11.4 299 20.3
2009-06-17 09:15:16 51°18.368 2°40.09 295.8 11.5 299 22.3
2009-06-17 09:15:21 51°18.376 2°40.068 295.3 11.5 299 23.9
2009-06-17 09:15:26 51°18.384 2°40.045 295.9 11.5 299 24.8
2009-06-17 09:15:31 51°18.391 2°40.023 295.7 11.5 299 25.4
2009-06-17 09:15:36 51°18.399 2°40.001 295.2 11.5 297 25.9
2009-06-17 09:15:41 51°18.407 2°39.978 294.6 11.5 299 26.3
2009-06-17 09:15:46 51°18.414 2°39.956 295 11.5 297 26.5
2009-06-17 09:15:51 51°18.422 2°39.933 294.8 11.5 299 26.2
2009-06-17 09:15:56 51°18.43 2°39.911 294.5 11.5 298 26.4
2009-06-17 09:16:01 51°18.438 2°39.889 294.8 11.5 299 26.4
2009-06-17 09:16:06 51°18.446 2°39.867 295.4 11.6 300 26.2
2009-06-17 09:16:11 51°18.453 2°39.845 295.7 11.6 300 26.6
2009-06-17 09:16:16 51°18.461 2°39.822 295.2 11.5 298 26.3
2009-06-17 09:16:21 51°18.469 2°39.8 295.1 11.6 301 26.3
2009-06-17 09:16:26 51°18.477 2°39.778 295 11.5 300 26
2009-06-17 09:16:31 51°18.484 2°39.756 294.8 11.5 298 26
2009-06-17 09:16:36 51°18.493 2°39.734 294.7 11.5 301 26.3
2009-06-17 09:16:41 51°18.5 2°39.711 294.9 11.4 298 26
2009-06-17 09:16:45 51°18.506 2°39.694 294.4 11.5 301 26.1
2009-06-17 09:16:51 51°18.516 2°39.668 295.2 11.4 301 26.2
2009-06-17 09:16:56 51°18.524 2°39.646 295.9 11.5 300 26.1
2009-06-17 09:17:01 51°18.532 2°39.624 295.2 11.5 301 25.4
2009-06-17 09:17:06 51°18.54 2°39.602 295.5 11.5 299 25.7
2009-06-17 09:17:11 51°18.548 2°39.58 295.1 11.5 299 25.6
2009-06-17 09:17:16 51°18.556 2°39.558 294.8 11.5 301 26
2009-06-17 09:17:21 51°18.565 2°39.537 296.2 11.6 303 25.5
2009-06-17 09:17:25 51°18.571 2°39.519 296.1 11.5 301 25.4
2009-06-17 09:17:31 51°18.581 2°39.492 295.5 11.5 300 25.7
2009-06-17 09:17:36 51°18.589 2°39.471 295.4 11.6 302 25.7
2009-06-17 09:17:41 51°18.597 2°39.449 295.9 11.6 301 25.8
2009-06-17 09:17:46 51°18.606 2°39.427 296.2 11.6 302 25.8
2009-06-17 09:17:51 51°18.614 2°39.405 296.3 11.6 301 26
2009-06-17 09:17:56 51°18.623 2°39.383 296.5 11.6 301 26.1
2009-06-17 09:18:01 51°18.63 2°39.36 296.2 11.6 298 26.4
2009-06-17 09:18:05 51°18.637 2°39.343 295.5 11.6 301 26.4
2009-06-17 09:18:11 51°18.647 2°39.316 296.2 11.6 302 26
2009-06-17 09:18:16 51°18.655 2°39.294 296.7 11.6 301 26
2009-06-17 09:18:21 51°18.664 2°39.273 296.4 11.6 302 26
2009-06-17 09:18:26 51°18.672 2°39.251 295.8 11.6 303 26.1
2009-06-17 09:18:31 51°18.681 2°39.229 296.3 11.6 302 26
2009-06-17 09:18:36 51°18.69 2°39.207 296.6 11.6 302 26.5
2009-06-17 09:18:41 51°18.698 2°39.186 296.4 11.6 303 26.7
2009-06-17 09:18:45 51°18.705 2°39.168 296.5 11.6 302 26.6
2009-06-17 09:18:51 51°18.716 2°39.142 296.6 11.6 302 26.6
2009-06-17 09:18:56 51°18.724 2°39.12 296.2 11.6 300 26.6
2009-06-17 09:19:01 51°18.732 2°39.098 295.2 11.6 301 26.4
2009-06-17 09:19:06 51°18.74 2°39.076 294.9 11.6 300 26.7
2009-06-17 09:19:11 51°18.748 2°39.054 294.8 11.6 300 26.8
2009-06-17 09:19:16 51°18.756 2°39.031 294 11.6 300 27
2009-06-17 09:19:21 51°18.764 2°39.009 294.3 11.6 299 26.8
2009-06-17 09:19:26 51°18.771 2°38.986 293.9 11.5 298 27
2009-06-17 09:19:31 51°18.779 2°38.964 293.5 11.5 297 27.2
2009-06-17 09:19:36 51°18.786 2°38.941 292.8 11.5 298 27.1
2009-06-17 09:19:41 51°18.794 2°38.919 293.5 11.5 298 27.5
2009-06-17 09:19:46 51°18.801 2°38.896 294.8 11.6 298 27.7
2009-06-17 09:19:51 51°18.809 2°38.873 294.4 11.6 299 27.4
2009-06-17 09:19:56 51°18.817 2°38.851 294.7 11.6 298 27.5
2009-06-17 09:20:01 51°18.824 2°38.828 294.1 11.6 297 27.4
2009-06-17 09:20:06 51°18.831 2°38.805 294 11.6 297 27.3
2009-06-17 09:20:11 51°18.839 2°38.783 294.1 11.6 298 27.4
2009-06-17 09:20:16 51°18.847 2°38.76 294.7 11.6 297 27.4
2009-06-17 09:20:21 51°18.854 2°38.737 294 11.5 298 27.3
2009-06-17 09:20:26 51°18.862 2°38.715 294.5 11.6 298 27.6
2009-06-17 09:20:31 51°18.869 2°38.692 294.9 11.5 297 27.7
2009-06-17 09:20:36 51°18.877 2°38.67 295.3 11.6 299 27.6
2009-06-17 09:20:41 51°18.884 2°38.646 295.7 11.6 298 27.4
2009-06-17 09:20:46 51°18.892 2°38.624 296.2 11.6 299 27.7
2009-06-17 09:20:51 51°18.9 2°38.602 296.5 11.7 299 27.8
2009-06-17 09:20:56 51°18.908 2°38.579 296.7 11.6 301 27.6
2009-06-17 09:21:01 51°18.916 2°38.557 297.2 11.7 299 27.9
2009-06-17 09:21:06 51°18.924 2°38.534 296.4 11.7 298 27.8
2009-06-17 09:21:11 51°18.932 2°38.512 296 11.6 299 27.5
2009-06-17 09:21:16 51°18.939 2°38.489 296.1 11.7 300 27.6
2009-06-17 09:21:21 51°18.947 2°38.466 296.6 11.7 299 27.9
2009-06-17 09:21:26 51°18.955 2°38.444 296.2 11.7 299 27.7
2009-06-17 09:21:31 51°18.963 2°38.421 295.7 11.6 297 27.7
2009-06-17 09:21:36 51°18.97 2°38.398 294.9 11.6 297 27.6
2009-06-17 09:21:41 51°18.977 2°38.375 294.2 11.7 297 27.2
2009-06-17 09:21:46 51°18.984 2°38.352 294 11.7 297 27.1
2009-06-17 09:21:51 51°18.992 2°38.329 294.8 11.7 296 27.1
2009-06-17 09:21:56 51°18.999 2°38.306 295.2 11.7 295 27.1
2009-06-17 09:22:01 51°19.005 2°38.282 294.4 11.7 294 26.9
2009-06-17 09:22:06 51°19.012 2°38.259 294.4 11.7 295 26.3
2009-06-17 09:22:11 51°19.019 2°38.235 294.6 11.8 294 26.4
2009-06-17 09:22:16 51°19.025 2°38.211 294.4 11.7 294 25.8
2009-06-17 09:22:21 51°19.032 2°38.187 294.5 11.8 295 25.4
2009-06-17 09:22:26 51°19.039 2°38.164 295.7 11.8 296 25.5
2009-06-17 09:22:31 51°19.046 2°38.14 295.3 11.8 295 25.2
2009-06-17 09:22:36 51°19.054 2°38.117 296.2 11.8 297 24.1
2009-06-17 09:22:41 51°19.06 2°38.093 296.2 11.8 295 23.5
2009-06-17 09:22:46 51°19.068 2°38.069 295.5 11.8 295 24.3
2009-06-17 09:22:51 51°19.074 2°38.046 295 11.8 295 23.9
2009-06-17 09:22:56 51°19.081 2°38.022 294.7 11.9 294 24.4
2009-06-17 09:23:01 51°19.088 2°37.998 294.4 11.8 295 24.2
2009-06-17 09:23:06 51°19.095 2°37.974 294.2 11.9 295 23.8
2009-06-17 09:23:11 51°19.102 2°37.951 294.6 11.9 295 23.2
2009-06-17 09:23:16 51°19.109 2°37.927 294.7 11.8 296 21.7
2009-06-17 09:23:21 51°19.116 2°37.904 295.1 11.8 295 21.2
2009-06-17 09:23:26 51°19.124 2°37.88 295.6 11.9 297 23.1
2009-06-17 09:23:31 51°19.131 2°37.856 295.5 11.8 295 23.3
2009-06-17 09:23:36 51°19.138 2°37.833 295.1 11.8 298 22.7
2009-06-17 09:23:41 51°19.145 2°37.809 295.7 11.8 296 22.9
2009-06-17 09:23:46 51°19.152 2°37.786 296.2 11.8 296 22.2
2009-06-17 09:23:51 51°19.159 2°37.762 295.5 11.7 295 20.1
2009-06-17 09:23:56 51°19.166 2°37.739 295.1 11.7 295 22.1
2009-06-17 09:24:01 51°19.173 2°37.716 295.3 11.7 296 22.5
2009-06-17 09:24:06 51°19.18 2°37.692 295.1 11.7 294 20.2
2009-06-17 09:24:11 51°19.187 2°37.669 295.2 11.7 296 21.3
2009-06-17 09:24:16 51°19.194 2°37.645 294.8 11.8 295 22.4
2009-06-17 09:24:21 51°19.201 2°37.622 295.1 11.8 297 20.6
2009-06-17 09:24:26 51°19.208 2°37.598 295.7 11.8 297 20.6
2009-06-17 09:24:31 51°19.215 2°37.575 295.7 11.8 297 21.5
2009-06-17 09:24:36 51°19.223 2°37.551 295.2 11.8 296 19.7
2009-06-17 09:24:41 51°19.23 2°37.528 295.5 11.8 297 21
2009-06-17 09:24:46 51°19.238 2°37.505 295.6 11.8 298 18.2
2009-06-17 09:24:51 51°19.245 2°37.482 296.3 11.8 298 19.8
2009-06-17 09:24:56 51°19.252 2°37.459 296.3 11.7 297 21.2
2009-06-17 09:25:01 51°19.26 2°37.436 295.9 11.7 297 21.4
2009-06-17 09:25:06 51°19.266 2°37.412 295 11.6 295 20.2
2009-06-17 09:25:11 51°19.274 2°37.389 294.8 11.5 296 19.5
2009-06-17 09:25:16 51°19.28 2°37.366 294.7 11.6 296 20.8
2009-06-17 09:25:21 51°19.287 2°37.343 294.7 11.6 295 21.5
2009-06-17 09:25:26 51°19.295 2°37.32 295.6 11.7 297 21.8
2009-06-17 09:25:31 51°19.302 2°37.296 295.6 11.7 296 19.1
2009-06-17 09:25:37 51°19.31 2°37.269 295.3 11.6 295 20.5
2009-06-17 09:25:41 51°19.315 2°37.25 294.6 11.7 295 21.5
2009-06-17 09:25:45 51°19.322 2°37.232 295.9 11.7 298 21.5
2009-06-17 09:25:51 51°19.33 2°37.203 295.9 11.7 294 21.5
2009-06-17 09:25:56 51°19.338 2°37.181 295 11.7 297 19.8
2009-06-17 09:26:01 51°19.344 2°37.157 295.4 11.7 295 19.8
2009-06-17 09:26:06 51°19.351 2°37.134 294.9 11.7 297 21.4
2009-06-17 09:26:11 51°19.359 2°37.111 295.5 11.8 296 21.6
2009-06-17 09:26:16 51°19.366 2°37.087 295.6 11.8 298 22.2
2009-06-17 09:26:21 51°19.374 2°37.065 296.1 11.8 298 22.8
2009-06-17 09:26:25 51°19.38 2°37.047 296.7 11.7 298 22.5
2009-06-17 09:26:31 51°19.389 2°37.019 295.7 11.6 296 22.2
2009-06-17 09:26:36 51°19.396 2°36.996 294.8 11.6 296 21.9
2009-06-17 09:26:41 51°19.403 2°36.972 294.9 11.6 296 21.3
2009-06-17 09:26:46 51°19.41 2°36.95 294.8 11.7 297 20.7
2009-06-17 09:26:51 51°19.418 2°36.927 295.9 11.7 298 21.6
2009-06-17 09:26:56 51°19.426 2°36.904 296.5 11.7 299 21.8
2009-06-17 09:27:01 51°19.433 2°36.88 296.5 11.7 296 22.6
2009-06-17 09:27:06 51°19.441 2°36.857 296 11.6 296 22.8
2009-06-17 09:27:11 51°19.447 2°36.833 294.8 11.6 296 22.3
2009-06-17 09:27:16 51°19.455 2°36.811 295.6 11.6 297 20.3
2009-06-17 09:27:21 51°19.463 2°36.788 296.2 11.7 297 20.9
2009-06-17 09:27:26 51°19.47 2°36.765 296.2 11.6 297 21.4
2009-06-17 09:27:31 51°19.477 2°36.742 296.5 11.7 296 22
2009-06-17 09:27:36 51°19.484 2°36.718 295.1 11.7 294 22.4
2009-06-17 09:27:41 51°19.491 2°36.695 293.6 11.6 296 22.6
2009-06-17 09:27:46 51°19.498 2°36.672 293.3 11.6 292 22.9
2009-06-17 09:27:51 51°19.504 2°36.648 291.9 11.6 295 22.6
2009-06-17 09:27:56 51°19.51 2°36.624 291 11.6 291 21.6
2009-06-17 09:28:01 51°19.516 2°36.601 290.6 11.6 292 21.4
2009-06-17 09:28:06 51°19.522 2°36.577 289.9 11.6 290 21.6
2009-06-17 09:28:11 51°19.528 2°36.553 289.9 11.6 292 22.1
2009-06-17 09:28:16 51°19.533 2°36.529 289.8 11.6 290 21.9
2009-06-17 09:28:21 51°19.539 2°36.505 289.2 11.6 291 20.1
2009-06-17 09:28:26 51°19.545 2°36.481 289.7 11.6 291 20.8
2009-06-17 09:28:31 51°19.55 2°36.457 288.9 11.6 291 21.5
2009-06-17 09:28:36 51°19.556 2°36.433 288.9 11.6 289 22
2009-06-17 09:28:41 51°19.562 2°36.409 289 11.6 292 21.4
2009-06-17 09:28:46 51°19.567 2°36.384 288.6 11.6 291 21.4
2009-06-17 09:28:51 51°19.573 2°36.36 289 11.6 290 21.5
2009-06-17 09:28:56 51°19.578 2°36.336 288.7 11.6 291 21.7
2009-06-17 09:29:01 51°19.584 2°36.312 288.9 11.6 290 22
2009-06-17 09:29:06 51°19.589 2°36.288 287.9 11.5 289 22.1
2009-06-17 09:29:11 51°19.595 2°36.264 288.7 11.6 291 21.5
2009-06-17 09:29:16 51°19.6 2°36.24 288.4 11.5 288 21.4
2009-06-17 09:29:21 51°19.606 2°36.216 287.9 11.6 290 21.5
2009-06-17 09:29:26 51°19.611 2°36.191 287.5 11.6 289 22.1
2009-06-17 09:29:31 51°19.616 2°36.167 287.6 11.6 289 22.4
2009-06-17 09:29:36 51°19.621 2°36.143 287.5 11.6 289 22
2009-06-17 09:29:41 51°19.626 2°36.119 286.9 11.5 288 21.4
2009-06-17 09:29:46 51°19.632 2°36.094 286.8 11.6 289 20.4
2009-06-17 09:29:51 51°19.637 2°36.07 287.2 11.6 289 19.9
2009-06-17 09:29:57 51°19.643 2°36.041 287.5 11.6 289 20.5
2009-06-17 09:30:01 51°19.648 2°36.022 287.9 11.6 289 20.9
2009-06-17 09:30:06 51°19.653 2°35.998 288.7 11.6 292 21.2
2009-06-17 09:30:11 51°19.659 2°35.974 289.4 11.6 290 21.3
2009-06-17 09:30:16 51°19.665 2°35.95 289.7 11.6 291 21.8
2009-06-17 09:30:21 51°19.67 2°35.926 289.2 11.6 289 21.9
2009-06-17 09:30:25 51°19.675 2°35.906 289.3 11.6 291 21.6
2009-06-17 09:30:31 51°19.682 2°35.877 289 11.7 291 21.7
2009-06-17 09:30:36 51°19.688 2°35.854 289.9 11.6 291 21.3
2009-06-17 09:30:41 51°19.693 2°35.829 289.5 11.6 290 20.8
2009-06-17 09:30:46 51°19.699 2°35.806 288.9 11.6 292 20.7
2009-06-17 09:30:51 51°19.704 2°35.782 289 11.5 292 20.9
2009-06-17 09:30:56 51°19.71 2°35.758 289 11.6 289 20.9
2009-06-17 09:31:01 51°19.716 2°35.735 288.4 11.5 291 20
2009-06-17 09:31:06 51°19.721 2°35.71 288.2 11.5 288 19.6
2009-06-17 09:31:11 51°19.727 2°35.686 288 11.5 290 19.5
2009-06-17 09:31:16 51°19.733 2°35.662 287.9 11.5 291 18.5
2009-06-17 09:31:21 51°19.738 2°35.637 287.9 11.6 289 19.7
2009-06-17 09:31:26 51°19.744 2°35.613 288.1 11.5 289 20.4
2009-06-17 09:31:31 51°19.749 2°35.59 288.6 11.6 292 19.8
2009-06-17 09:31:36 51°19.755 2°35.565 288.4 11.6 290 20
2009-06-17 09:31:41 51°19.761 2°35.541 288.6 11.6 291 19.3
2009-06-17 09:31:46 51°19.766 2°35.517 288.2 11.5 291 17.6
2009-06-17 09:31:52 51°19.773 2°35.489 288.6 11.5 289 19.3
2009-06-17 09:31:56 51°19.777 2°35.469 288.4 11.5 292 19
2009-06-17 09:32:01 51°19.782 2°35.445 288.4 11.5 289 18.8
2009-06-17 09:32:06 51°19.788 2°35.422 288.2 11.5 291 18.5
2009-06-17 09:32:11 51°19.794 2°35.397 288.7 11.5 290 18.2
2009-06-17 09:32:16 51°19.799 2°35.373 288.2 11.5 291 18.1
2009-06-17 09:32:21 51°19.805 2°35.349 288.5 11.5 290 17.9
2009-06-17 09:32:26 51°19.811 2°35.325 288.9 11.6 292 17.1
2009-06-17 09:32:31 51°19.816 2°35.301 289.4 11.5 291 17.3
2009-06-17 09:32:36 51°19.822 2°35.278 289.5 11.7 291 17.2
2009-06-17 09:32:41 51°19.828 2°35.254 289.7 11.7 293 16.9
2009-06-17 09:32:46 51°19.834 2°35.23 290.4 11.6 290 16.7
2009-06-17 09:32:51 51°19.841 2°35.206 290.4 11.7 293 15.6
2009-06-17 09:32:56 51°19.846 2°35.182 290.4 11.6 292 15.3
2009-06-17 09:33:01 51°19.852 2°35.158 290.2 11.6 291 16.4
2009-06-17 09:33:06 51°19.858 2°35.134 289.5 11.6 293 16
2009-06-17 09:33:11 51°19.864 2°35.11 289.8 11.7 291 16.2
2009-06-17 09:33:16 51°19.87 2°35.086 290 11.6 291 16.1
2009-06-17 09:33:21 51°19.875 2°35.063 290.2 11.6 291 14.9
2009-06-17 09:33:26 51°19.881 2°35.039 289 11.6 293 16
2009-06-17 09:33:32 51°19.888 2°35.01 289.7 11.6 291 15.1
2009-06-17 09:33:36 51°19.893 2°34.991 289.7 11.6 291 15.7
2009-06-17 09:33:41 51°19.899 2°34.967 289.6 11.7 291 14.4
2009-06-17 09:33:46 51°19.905 2°34.943 289.7 11.6 291 17.3
2009-06-17 09:33:51 51°19.911 2°34.919 289.9 11.7 292 17.4